Miami, FL

11:26 AM EDT on September 20, 2014 (GMT -0400)
Twig's Digs - Coconut Grove | Change Station
CLOSE
Current Station
Personal Weather Station
Location: Coconut Grove, FL
Elevation: 14 ft
Nearby Weather Stations

Elev 14 ft 25.74 °N, 80.24 °W | Updated 24 minutes ago

Mostly Cloudy
Mostly Cloudy
84.0 °F
Feels Like 95 °F
N
2.0
Wind Variable Wind from SE
Gusts 6.0 mph

Today
High -- | Low -- °F
--% Chance of Precip.
Yesterday
High -- | Low -- °F
Precip. -- in
7:08 AM 7:19 PM
Waning Crescent, 12% visible
Pressure 29.95 in
Visibility 10.0 miles
Clouds Few 2500 ft
Mostly Cloudy 18000 ft
Mostly Cloudy 25000 ft
Heat Index 95 °F
Dew Point 78 °F
Humidity 82%
Rainfall 0.00 in
Snow Depth Not available.
UV 5 out of 12
Pollen 2.70 out of 12
Ozone Good
PM2.5 Moderate
Flu Activity Not available.
METAR KMIA 201453Z 19008KT 10SM FEW025 BKN180 BKN250 29/24 A2995 RMK AO2 SLP141 T02890239 53006

More Conditions Fewer Conditions

Pressure 29.95 in
Visibility 10.0 miles
Clouds Few 2500 ft
Mostly Cloudy 18000 ft
Mostly Cloudy 25000 ft
Heat Index 95 °F
Dew Point 78 °F
Humidity 82%
Rainfall 0.00 in
Snow Depth Not available.
UV 5 out of 12
Pollen 2.70 out of 12
Ozone Good
PM2.5 Moderate
Flu Activity Not available.
METAR KMIA 201453Z 19008KT 10SM FEW025 BKN180 BKN250 29/24 A2995 RMK AO2 SLP141 T02890239 53006

More Conditions Fewer Conditions

10-Day Weather Forecast

Almanac

Astronomy

Sep. 20, 2014 Rise Set
Actual Time 7:08 AM EDT 7:19 PM EDT
Civil Twilight 6:45 AM EDT 7:42 PM EDT
Nautical Twilight 6:19 AM EDT 8:09 PM EDT
Astronomical Twilight 5:52 AM EDT 8:36 PM EDT
Moon 4:02 AM EDT 5:08 PM EDT
Length of Visible Light 12h 56m
Length of Day
12h 10m
Tomorrow will be 1m 30s shorter.
Waning Crescent, 12% of the Moon is Illuminated
Today
Waning Crescent
Sep 24
New
Oct 1
First Quarter
Oct 8
Full
Oct 15
Last Quarter

Today's Extremes

State Highs State Lows

Community

WunderPhotos

Upload Photos

1,754,874 photos uploaded!

Nearby

Air Quality

  Air Quality AQ Index Pollutant
Yesterday Moderate
PM2.5
Yesterday Good
OZONE
Current Moderate
PM2.5
Current Good
OZONE
Saturday Good
OZONE
Saturday Good
PM2.5
Sunday Good
OZONE
Sunday Good
PM2.5
Monday Good
OZONE
Monday Good
PM2.5
Tuesday Good
OZONE
Tuesday Good
PM2.5

Snow Depth

Station Depth Elevation
No new snow has been reported.

Earthquake Activity

City Distance Mag. Time & Date
No recent earthquake activity has been reported nearby.
Minimum magnitude displayed is 2.5.

Coastal Water Temperatures

Place Temperature
Virginia Key, FL 84.9 °F

Nearby Weather Stations